Redding, CA

6:46 AM PDT on September 18, 2014 (GMT -0700)
Dartmouth Drive | Change Station
CLOSE
Current Station
Personal Weather Station
Location: Redding, CA
Elevation: 768 ft
Nearby Weather Stations

Elev 768 ft 40.56 °N, 122.43 °W | Updated 7 minutes ago

Overcast
Overcast
68.0 °F
Feels Like 68.0 °F
N
1.7
Wind Variable Wind from ESE

Today
High -- | Low -- °F
--% Chance of Precip.
Yesterday
High -- | Low -- °F
Precip. -- in
6:53 AM 7:13 PM
Waning Crescent, 27% visible
Pressure 29.76 in
Visibility 10.0 miles
Clouds Mostly Cloudy 4100 ft
Overcast 6500 ft
Dew Point 60 °F
Humidity 75%
Rainfall 0.00 in
Snow Depth 0 in , 1 in , 0 in
UV 0 out of 12
Pollen 4.40 out of 12
Air Quality Not available.
Flu Activity Not available.
METAR KRDD 181253Z AUTO 20005KT 10SM BKN041 OVC065 21/16 A2977 RMK AO2 SLP077 T02060156

More Conditions Fewer Conditions

Pressure 29.76 in
Visibility 10.0 miles
Clouds Mostly Cloudy 4100 ft
Overcast 6500 ft
Dew Point 60 °F
Humidity 75%
Rainfall 0.00 in
Snow Depth 0 in , 1 in , 0 in
UV 0 out of 12
Pollen 4.40 out of 12
Air Quality Not available.
Flu Activity Not available.
METAR KRDD 181253Z AUTO 20005KT 10SM BKN041 OVC065 21/16 A2977 RMK AO2 SLP077 T02060156

More Conditions Fewer Conditions

10-Day Weather Forecast

Almanac

Astronomy

Sep. 18, 2014 Rise Set
Actual Time 6:53 AM PDT 7:13 PM PDT
Civil Twilight 6:26 AM PDT 7:40 PM PDT
Nautical Twilight 5:53 AM PDT 8:12 PM PDT
Astronomical Twilight 5:21 AM PDT 8:45 PM PDT
Moon 1:49 AM PDT 4:09 PM PDT
Length of Visible Light 13h 14m
Length of Day
12h 19m
Tomorrow will be 2m 39s shorter.
Waning Crescent, 27% of the Moon is Illuminated
Today
Waning Crescent
Sep 24
New
Oct 1
First Quarter
Oct 8
Full
Oct 15
Last Quarter

Today's Extremes

State Highs State Lows

Community

WunderPhotos

Upload Photos

1,754,347 photos uploaded!

Nearby

Snow Depth

Station Depth Elevation
Blue Lakes 0 in 8000 ft
Echo Peak 1 in 7800 ft
Burnside Lake 0 in 8139 ft
Hagan's Meadow 0 in 8000 ft
Sonora Pass 0 in 8800 ft

Earthquake Activity

City Distance Mag. Time & Date
The Geysers, California 125 miles 2.5 11:29 PM PDT
2014-09-17
Cobb, California 123 miles 2.7 1:23 PM PDT
2014-09-16
Minimum magnitude displayed is 2.5.

Coastal Water Temperatures

Place Temperature
No Stations Reporting

Nearby Weather Stations